createdAt,value
2022-12-01T00:01:03.175Z,49.00
2022-12-01T00:03:32.542Z,48.17
2022-12-01T00:06:12.751Z,47.75
2022-12-01T00:08:39.743Z,45.22
2022-12-01T00:11:11.432Z,52.25
2022-12-01T00:13:38.535Z,46.00
2022-12-01T00:16:12.838Z,45.38
2022-12-01T00:18:39.791Z,45.50
2022-12-01T00:21:07.069Z,45.05
2022-12-01T00:23:36.363Z,47.00
2022-12-01T00:26:05.902Z,45.07
2022-12-01T00:28:33.511Z,41.83
2022-12-01T00:31:00.428Z,46.65
2022-12-01T00:33:27.417Z,47.28
2022-12-01T00:36:00.810Z,43.97
2022-12-01T00:38:28.028Z,41.38
2022-12-01T00:40:54.948Z,44.45
2022-12-01T00:43:21.903Z,46.05
2022-12-01T00:45:48.964Z,42.63
2022-12-01T00:48:16.072Z,44.63
2022-12-01T00:50:43.048Z,44.00
2022-12-01T00:53:10.021Z,41.47
2022-12-01T00:55:40.412Z,43.50
2022-12-01T00:58:07.682Z,37.05
2022-12-01T01:00:34.786Z,39.85
2022-12-01T01:03:01.920Z,44.13
2022-12-01T01:05:28.919Z,44.33
2022-12-01T01:07:55.884Z,44.30
2022-12-01T01:10:22.877Z,38.30
2022-12-01T01:12:52.325Z,41.38
2022-12-01T01:15:19.113Z,42.15
2022-12-01T01:17:45.972Z,38.65
2022-12-01T01:20:13.339Z,41.58
2022-12-01T01:22:40.275Z,41.53
2022-12-01T01:25:07.553Z,42.90
2022-12-01T01:27:34.977Z,40.35
2022-12-01T01:30:01.759Z,38.88
2022-12-01T01:32:28.622Z,42.85
2022-12-01T01:34:55.472Z,43.15
2022-12-01T01:37:22.356Z,42.63
2022-12-01T01:39:49.302Z,41.85
2022-12-01T01:42:18.893Z,39.92
2022-12-01T01:44:53.836Z,44.88
2022-12-01T01:47:35.271Z,43.70
2022-12-01T01:50:06.616Z,42.13
2022-12-01T01:52:38.894Z,43.45
2022-12-01T01:55:06.189Z,44.63
2022-12-01T01:57:33.395Z,42.78
2022-12-01T02:00:12.369Z,43.53
2022-12-01T02:02:44.419Z,43.92
2022-12-01T02:05:32.629Z,41.63
2022-12-01T02:08:00.373Z,39.83
2022-12-01T02:10:47.609Z,43.05
2022-12-01T02:13:46.321Z,41.30
2022-12-01T02:16:19.374Z,38.60
2022-12-01T02:19:16.726Z,41.13
2022-12-01T02:21:56.392Z,43.40
2022-12-01T02:24:26.415Z,40.22
2022-12-01T02:27:34.746Z,41.47
2022-12-01T02:30:08.016Z,39.17
2022-12-01T02:33:06.238Z,41.30
2022-12-01T02:35:42.020Z,37.78
2022-12-01T02:38:34.717Z,38.97
2022-12-01T02:41:16.730Z,35.10
2022-12-01T02:43:51.058Z,39.85
2022-12-01T02:46:58.226Z,37.42
2022-12-01T02:49:30.884Z,36.05
2022-12-01T02:51:57.745Z,36.38
2022-12-01T02:54:24.620Z,38.97
2022-12-01T02:56:54.661Z,40.13
2022-12-01T02:59:21.575Z,37.58
2022-12-01T03:01:57.621Z,33.72
2022-12-01T03:04:38.259Z,35.13
2022-12-01T03:07:33.324Z,35.33
2022-12-01T03:10:00.246Z,34.90
2022-12-01T03:12:49.518Z,35.47
2022-12-01T03:16:04.907Z,34.17
2022-12-01T03:18:46.722Z,34.47
2022-12-01T03:21:30.802Z,33.83
2022-12-01T03:24:21.274Z,34.90
2022-12-01T03:26:51.791Z,34.00
2022-12-01T03:29:27.138Z,33.92
2022-12-01T03:32:03.878Z,32.10
2022-12-01T03:34:36.583Z,37.80
2022-12-01T03:37:09.619Z,34.80
2022-12-01T03:39:36.818Z,31.77
2022-12-01T03:42:14.417Z,33.35
2022-12-01T03:44:55.248Z,34.92
2022-12-01T03:47:32.513Z,36.38
2022-12-01T03:50:00.293Z,31.75
2022-12-01T03:53:01.286Z,32.75
2022-12-01T03:55:29.535Z,32.90
2022-12-01T03:58:00.408Z,29.58
2022-12-01T04:00:27.398Z,31.27
2022-12-01T04:03:04.311Z,30.33
2022-12-01T04:05:32.660Z,29.23
2022-12-01T04:07:59.946Z,30.35
2022-12-01T04:10:26.846Z,32.47
2022-12-01T04:12:59.160Z,29.27
2022-12-01T04:15:26.348Z,31.13
2022-12-01T04:17:53.149Z,30.63
2022-12-01T04:20:20.145Z,34.75
2022-12-01T04:22:47.040Z,32.55
2022-12-01T04:25:13.891Z,38.58
2022-12-01T04:27:40.722Z,34.58
2022-12-01T04:30:08.330Z,32.75
2022-12-01T04:32:42.502Z,30.58
2022-12-01T04:35:10.528Z,32.90
2022-12-01T04:37:37.432Z,32.90
2022-12-01T04:40:05.789Z,32.78
2022-12-01T04:42:32.635Z,31.77
2022-12-01T04:44:59.473Z,34.50
2022-12-01T04:47:26.301Z,30.85
2022-12-01T04:49:53.363Z,34.08
2022-12-01T04:52:20.161Z,33.10
2022-12-01T04:54:47.054Z,34.10
2022-12-01T04:57:13.916Z,28.75
2022-12-01T04:59:40.858Z,31.63
2022-12-01T05:02:08.037Z,28.88
2022-12-01T05:04:38.565Z,26.83
2022-12-01T05:07:05.964Z,30.70
2022-12-01T05:09:32.911Z,30.48
2022-12-01T05:11:59.813Z,29.40
2022-12-01T05:14:26.704Z,34.05
2022-12-01T05:16:55.054Z,30.02
2022-12-01T05:19:40.400Z,29.77
2022-12-01T05:22:07.305Z,28.38
2022-12-01T05:24:34.135Z,30.55
2022-12-01T05:27:01.022Z,30.73
2022-12-01T05:29:27.872Z,28.17
2022-12-01T05:31:54.916Z,30.83
2022-12-01T05:34:21.849Z,28.38
2022-12-01T05:36:48.696Z,30.92
2022-12-01T05:39:15.642Z,26.70
2022-12-01T05:41:42.505Z,32.05
2022-12-01T05:44:09.391Z,29.63
2022-12-01T05:46:36.322Z,28.00
2022-12-01T05:49:03.194Z,28.92
2022-12-01T05:51:30.029Z,30.25
2022-12-01T05:53:59.536Z,31.15
2022-12-01T05:56:26.394Z,27.55
2022-12-01T05:58:53.243Z,28.00
2022-12-01T06:01:20.174Z,29.45
2022-12-01T06:03:47.051Z,29.75
2022-12-01T06:06:14.085Z,26.55
2022-12-01T06:08:41.045Z,30.52
2022-12-01T06:11:07.996Z,28.67
2022-12-01T06:13:35.023Z,28.40
2022-12-01T06:16:03.576Z,27.45
2022-12-01T06:18:31.646Z,26.33
2022-12-01T06:20:58.584Z,25.15
2022-12-01T06:23:30.179Z,28.25
2022-12-01T06:25:57.934Z,25.35
2022-12-01T06:28:24.856Z,26.30
2022-12-01T06:30:51.679Z,27.38
2022-12-01T06:33:18.534Z,24.00
2022-12-01T06:35:45.563Z,26.90
2022-12-01T06:38:12.673Z,24.85
2022-12-01T06:40:39.587Z,27.92
2022-12-01T06:43:06.990Z,24.48
2022-12-01T06:45:33.998Z,24.83
2022-12-01T06:48:01.085Z,26.58
2022-12-01T06:50:28.145Z,26.30
2022-12-01T06:52:55.219Z,25.95
2022-12-01T06:55:22.246Z,25.10
2022-12-01T06:57:49.436Z,26.77
2022-12-01T07:00:16.951Z,25.25
2022-12-01T07:02:44.340Z,23.33
2022-12-01T07:05:11.391Z,25.92
2022-12-01T07:07:39.362Z,25.63
2022-12-01T07:10:07.063Z,28.23
2022-12-01T07:12:35.838Z,25.23
2022-12-01T07:15:03.206Z,25.13
2022-12-01T07:17:30.237Z,23.05
2022-12-01T07:19:57.246Z,27.88
2022-12-01T07:22:26.985Z,27.75
2022-12-01T07:25:00.490Z,26.45
2022-12-01T07:27:30.637Z,26.27
2022-12-01T07:29:57.570Z,27.30
2022-12-01T07:32:24.529Z,27.80
2022-12-01T07:34:51.753Z,26.98
2022-12-01T07:37:18.632Z,25.67
2022-12-01T07:39:48.535Z,26.67
2022-12-01T07:42:15.638Z,24.20
2022-12-01T07:44:43.632Z,25.63
2022-12-01T07:47:10.566Z,26.13
2022-12-01T07:49:41.268Z,26.17
2022-12-01T07:52:08.278Z,26.35
2022-12-01T07:54:35.171Z,27.08
2022-12-01T07:57:02.291Z,29.15
2022-12-01T07:59:29.340Z,28.80
2022-12-01T08:01:56.454Z,29.75
2022-12-01T08:04:23.575Z,28.17
2022-12-01T08:06:50.450Z,29.70
2022-12-01T08:09:17.338Z,24.23
2022-12-01T08:11:44.245Z,28.25
2022-12-01T08:14:11.092Z,27.40
2022-12-01T08:16:37.976Z,27.77
2022-12-01T08:19:05.072Z,26.83
2022-12-01T08:21:32.096Z,27.33
2022-12-01T08:23:59.092Z,27.23
2022-12-01T08:26:26.451Z,23.92
2022-12-01T08:28:53.465Z,25.70
2022-12-01T08:31:24.473Z,24.08
2022-12-01T08:33:51.608Z,24.65
2022-12-01T08:36:18.531Z,25.83
2022-12-01T08:38:45.888Z,27.00
2022-12-01T08:41:13.443Z,25.60
2022-12-01T08:43:57.203Z,28.45
2022-12-01T08:46:25.813Z,32.38
2022-12-01T08:48:55.052Z,29.05
2022-12-01T08:51:22.154Z,29.10
2022-12-01T08:53:49.665Z,30.77
2022-12-01T08:56:22.608Z,31.30
2022-12-01T08:58:51.129Z,31.95
2022-12-01T09:01:20.315Z,31.25
2022-12-01T09:03:47.345Z,27.52
2022-12-01T09:06:21.909Z,28.17
2022-12-01T09:08:49.106Z,33.67
2022-12-01T09:11:17.945Z,28.30
2022-12-01T09:13:47.676Z,28.42
2022-12-01T09:16:17.367Z,29.42
2022-12-01T09:18:45.484Z,32.13
2022-12-01T09:21:13.210Z,28.00
2022-12-01T09:23:40.254Z,29.75
2022-12-01T09:26:12.108Z,29.83
2022-12-01T09:28:40.555Z,30.10
2022-12-01T09:31:08.691Z,30.75
2022-12-01T09:33:35.986Z,32.08
2022-12-01T09:36:03.257Z,35.65
2022-12-01T09:38:32.457Z,36.47
2022-12-01T09:41:27.543Z,36.40
2022-12-01T09:44:15.802Z,34.15
2022-12-01T09:46:53.102Z,38.90
2022-12-01T09:49:25.502Z,29.52
2022-12-01T09:51:55.809Z,37.40
2022-12-01T09:54:22.776Z,34.97
2022-12-01T09:56:53.385Z,36.75
2022-12-01T09:59:24.900Z,33.78
2022-12-01T10:01:59.441Z,32.80
2022-12-01T10:04:36.139Z,34.38
2022-12-01T10:07:21.544Z,34.88
2022-12-01T10:10:07.292Z,34.08
2022-12-01T10:12:35.104Z,34.80
2022-12-01T10:15:23.360Z,36.33
2022-12-01T10:18:18.099Z,33.47
2022-12-01T10:21:08.915Z,37.63
2022-12-01T10:23:47.911Z,38.17
2022-12-01T10:26:37.865Z,37.70
2022-12-01T10:29:43.712Z,39.33
2022-12-01T10:32:30.634Z,41.17
2022-12-01T10:34:57.475Z,40.13
2022-12-01T10:37:26.313Z,42.30
2022-12-01T10:39:54.443Z,40.15
2022-12-01T10:42:29.222Z,38.75
2022-12-01T10:44:56.654Z,40.20
2022-12-01T10:47:25.511Z,39.75
2022-12-01T10:49:52.868Z,43.35
2022-12-01T10:52:30.412Z,43.03
2022-12-01T10:54:57.458Z,42.20
2022-12-01T10:57:24.379Z,41.25
2022-12-01T11:00:06.039Z,40.15
2022-12-01T11:02:33.357Z,44.25
2022-12-01T11:05:07.785Z,44.80
2022-12-01T11:07:36.470Z,43.08
2022-12-01T11:10:20.012Z,47.17
2022-12-01T11:12:55.586Z,48.15
2022-12-01T11:15:31.072Z,44.85
2022-12-01T11:18:00.251Z,45.03
2022-12-01T11:20:29.532Z,45.95
2022-12-01T11:23:18.476Z,45.15
2022-12-01T11:26:15.651Z,45.78
2022-12-01T11:28:59.055Z,43.80
2022-12-01T11:31:36.667Z,42.80
2022-12-01T11:34:03.675Z,44.38
2022-12-01T11:36:42.799Z,45.15
2022-12-01T11:39:32.631Z,47.13
2022-12-01T11:42:04.330Z,43.22
2022-12-01T11:47:24.644Z,44.70
2022-12-01T11:49:54.932Z,42.00
2022-12-01T11:52:33.421Z,46.95
2022-12-01T11:55:11.069Z,43.63
2022-12-01T11:57:45.772Z,42.47
2022-12-01T12:00:16.722Z,43.05
2022-12-01T12:03:01.860Z,44.38
2022-12-01T12:06:05.954Z,42.60
2022-12-01T12:08:50.571Z,44.17
2022-12-01T12:11:21.740Z,44.97
2022-12-01T12:14:03.767Z,41.35
2022-12-01T12:16:40.753Z,45.00
2022-12-01T12:19:34.086Z,41.92
2022-12-01T12:22:21.672Z,41.33
2022-12-01T12:25:00.452Z,38.80
2022-12-01T12:27:30.295Z,44.45
2022-12-01T12:30:15.864Z,43.22
2022-12-01T12:32:57.045Z,41.10
2022-12-01T12:35:37.359Z,40.80
2022-12-01T12:38:39.482Z,41.25
2022-12-01T12:41:31.579Z,38.92
2022-12-01T12:44:11.356Z,39.17
2022-12-01T12:46:38.317Z,40.58
2022-12-01T12:49:36.644Z,38.83
2022-12-01T12:52:08.901Z,41.85
2022-12-01T12:57:06.002Z,43.85
2022-12-01T12:59:53.712Z,38.33
2022-12-01T13:02:24.594Z,37.30
2022-12-01T13:04:59.869Z,39.25
2022-12-01T13:07:35.214Z,37.28
2022-12-01T13:10:30.768Z,38.88
2022-12-01T13:13:11.991Z,34.30
2022-12-01T13:15:39.119Z,37.00
2022-12-01T13:18:39.718Z,41.40
2022-12-01T13:21:06.887Z,38.28
2022-12-01T13:23:33.874Z,39.65
2022-12-01T13:26:01.634Z,39.88
2022-12-01T13:28:31.074Z,44.55
2022-12-01T13:31:03.757Z,42.60
2022-12-01T13:33:30.749Z,40.00
2022-12-01T13:36:23.059Z,41.08
2022-12-01T13:38:44.700Z,44.60
2022-12-01T13:41:29.825Z,41.97
2022-12-01T13:44:08.031Z,42.97
2022-12-01T13:46:44.287Z,43.45
2022-12-01T13:49:34.311Z,43.58
2022-12-01T13:52:23.103Z,44.58
2022-12-01T13:55:08.194Z,45.10
2022-12-01T13:57:40.172Z,40.40
2022-12-01T14:00:22.622Z,42.20
2022-12-01T14:03:19.249Z,47.17
2022-12-01T14:05:58.354Z,43.33
2022-12-01T14:08:29.010Z,49.63
2022-12-01T14:11:15.887Z,45.83
2022-12-01T14:13:54.093Z,43.83
2022-12-01T14:16:21.067Z,46.58
2022-12-01T14:18:58.522Z,43.83
2022-12-01T14:21:47.033Z,47.95
2022-12-01T14:24:37.989Z,43.83
2022-12-01T14:27:05.448Z,42.42
2022-12-01T14:29:34.176Z,40.65
2022-12-01T14:32:01.115Z,42.38
2022-12-01T14:34:30.401Z,47.17
2022-12-01T14:37:14.728Z,44.70
2022-12-01T14:40:05.850Z,41.75
2022-12-01T14:42:54.240Z,44.67
2022-12-01T14:45:40.897Z,42.65
2022-12-01T14:48:15.877Z,43.78
2022-12-01T14:50:49.293Z,43.63
2022-12-01T14:53:21.234Z,45.17
2022-12-01T14:55:56.531Z,45.80
2022-12-01T14:58:30.859Z,43.92
2022-12-01T15:01:03.210Z,44.10
2022-12-01T15:03:42.808Z,45.75
2022-12-01T15:06:10.252Z,43.85
2022-12-01T15:08:49.154Z,43.92
2022-12-01T15:11:24.067Z,45.28
2022-12-01T15:13:55.040Z,48.85
2022-12-01T15:16:24.004Z,43.70
2022-12-01T15:18:51.314Z,49.67
2022-12-01T15:21:19.781Z,40.35
2022-12-01T15:23:53.869Z,44.78
2022-12-01T15:26:21.276Z,44.13
2022-12-01T15:28:48.318Z,44.33
2022-12-01T15:31:16.702Z,48.78
2022-12-01T15:33:50.511Z,48.03
2022-12-01T15:36:17.499Z,48.72
2022-12-01T15:38:45.905Z,52.95
2022-12-01T15:41:29.382Z,48.47
2022-12-01T15:43:58.536Z,52.60
2022-12-01T15:46:34.383Z,52.40
2022-12-01T15:49:19.056Z,52.45
2022-12-01T15:51:47.431Z,57.13
2022-12-01T15:54:24.608Z,54.38
2022-12-01T15:56:53.720Z,56.03
2022-12-01T15:59:25.554Z,52.85
2022-12-01T16:01:52.681Z,55.75
2022-12-01T16:04:21.452Z,54.85
2022-12-01T16:07:10.376Z,55.55
2022-12-01T16:10:04.348Z,57.08
2022-12-01T16:12:33.047Z,55.22
2022-12-01T16:15:10.103Z,57.83
2022-12-01T16:18:01.273Z,62.67
2022-12-01T16:20:37.493Z,61.95
2022-12-01T16:23:10.367Z,63.50
2022-12-01T16:25:39.648Z,62.40
2022-12-01T16:28:07.473Z,64.53
2022-12-01T16:30:38.850Z,62.00
2022-12-01T16:33:22.208Z,68.00
2022-12-01T16:35:49.547Z,66.35
2022-12-01T16:38:22.455Z,72.50
2022-12-01T16:40:51.409Z,67.28
2022-12-01T16:43:20.297Z,74.03
2022-12-01T16:45:53.981Z,66.10
2022-12-01T16:48:20.944Z,68.45
2022-12-01T16:50:48.689Z,67.25
2022-12-01T16:53:16.076Z,64.10
2022-12-01T16:55:57.111Z,70.95
2022-12-01T16:58:24.333Z,69.03
2022-12-01T17:00:54.752Z,70.88
2022-12-01T17:03:28.699Z,68.60
2022-12-01T17:05:55.919Z,71.03
2022-12-01T17:08:22.991Z,69.32
2022-12-01T17:10:50.512Z,75.85
2022-12-01T17:13:17.766Z,80.95
2022-12-01T17:15:47.009Z,72.95
2022-12-01T17:18:15.904Z,78.45
2022-12-01T17:20:43.239Z,85.57
2022-12-01T17:23:10.135Z,83.15
2022-12-01T17:25:41.116Z,80.88
2022-12-01T17:28:08.067Z,79.88
2022-12-01T17:30:39.514Z,74.03
2022-12-01T17:33:06.488Z,81.40
2022-12-01T17:35:33.613Z,78.78
2022-12-01T17:38:00.661Z,74.38
2022-12-01T17:40:27.619Z,85.60
2022-12-01T17:42:54.596Z,78.35
2022-12-01T17:45:21.446Z,76.22
2022-12-01T17:47:48.667Z,80.65
2022-12-01T17:50:15.871Z,77.97
2022-12-01T17:52:42.878Z,76.72
2022-12-01T17:55:10.032Z,67.75
2022-12-01T17:57:37.180Z,72.65
2022-12-01T18:00:05.849Z,77.35
2022-12-01T18:02:35.802Z,77.55
2022-12-01T18:05:02.964Z,78.40
2022-12-01T18:07:30.065Z,77.32
2022-12-01T18:09:57.091Z,75.30
2022-12-01T18:12:24.372Z,58.15
2022-12-01T18:14:51.519Z,57.28
2022-12-01T18:17:18.752Z,55.58
2022-12-01T18:19:45.720Z,54.33
2022-12-01T18:22:12.575Z,50.28
2022-12-01T18:24:39.524Z,61.28
2022-12-01T18:27:06.470Z,57.78
2022-12-01T18:29:34.201Z,61.75
2022-12-01T18:32:01.253Z,64.72
2022-12-01T18:34:31.467Z,63.08
2022-12-01T18:36:58.673Z,57.28
2022-12-01T18:39:25.540Z,58.80
2022-12-01T18:41:52.773Z,52.70
2022-12-01T18:44:20.748Z,55.53
2022-12-01T18:46:47.880Z,55.95
2022-12-01T18:49:14.782Z,57.08
2022-12-01T18:51:41.795Z,52.70
2022-12-01T18:54:10.659Z,53.72
2022-12-01T18:56:37.560Z,59.35
2022-12-01T18:59:06.151Z,53.72
2022-12-01T19:01:40.236Z,55.17
2022-12-01T19:04:07.629Z,53.28
2022-12-01T19:06:35.687Z,58.58
2022-12-01T19:09:04.578Z,56.67
2022-12-01T19:11:31.913Z,56.00
2022-12-01T19:13:59.057Z,55.28
2022-12-01T19:16:26.306Z,55.17
2022-12-01T19:18:53.413Z,56.47
2022-12-01T19:21:20.537Z,49.75
2022-12-01T19:23:47.703Z,54.03
2022-12-01T19:26:19.969Z,53.10
2022-12-01T19:28:47.135Z,55.03
2022-12-01T19:31:18.888Z,55.25
2022-12-01T19:33:46.380Z,57.05
2022-12-01T19:36:15.075Z,52.10
2022-12-01T19:38:42.458Z,55.05
2022-12-01T19:41:09.574Z,53.92
2022-12-01T19:43:36.828Z,59.58
2022-12-01T19:46:13.556Z,55.97
2022-12-01T19:48:40.720Z,60.20
2022-12-01T19:51:07.741Z,56.97
2022-12-01T19:53:34.628Z,57.42
2022-12-01T19:56:05.296Z,56.58
2022-12-01T19:58:33.213Z,60.78
2022-12-01T20:01:07.993Z,55.20
2022-12-01T20:03:35.064Z,56.30
2022-12-01T20:06:03.741Z,53.90
2022-12-01T20:08:35.035Z,52.25
2022-12-01T20:11:04.505Z,52.33
2022-12-01T20:13:35.483Z,51.05
2022-12-01T20:16:09.358Z,56.88
2022-12-01T20:18:36.616Z,53.58
2022-12-01T20:21:08.797Z,55.53
2022-12-01T20:23:35.955Z,51.67
2022-12-01T20:26:04.960Z,55.40
2022-12-01T20:28:32.260Z,57.00
2022-12-01T20:30:59.325Z,57.50
2022-12-01T20:33:27.762Z,54.58
2022-12-01T20:35:54.698Z,59.17
2022-12-01T20:38:27.037Z,55.78
2022-12-01T20:40:54.608Z,56.10
2022-12-01T20:43:21.653Z,56.20
2022-12-01T20:45:48.706Z,59.80
2022-12-01T20:48:15.772Z,60.42
2022-12-01T20:50:42.741Z,63.13
2022-12-01T20:53:09.768Z,56.92
2022-12-01T20:55:37.147Z,63.88
2022-12-01T20:58:04.923Z,57.58
2022-12-01T21:00:32.129Z,61.08
2022-12-01T21:02:59.311Z,57.92
2022-12-01T21:05:26.825Z,55.88
2022-12-01T21:07:54.385Z,61.55
2022-12-01T21:10:21.367Z,61.13
2022-12-01T21:13:10.634Z,57.20
2022-12-01T21:15:45.523Z,55.70
2022-12-01T21:18:37.704Z,59.97
2022-12-01T21:21:18.135Z,58.65
2022-12-01T21:23:45.062Z,51.83
2022-12-01T21:26:16.373Z,59.30
2022-12-01T21:28:44.488Z,54.05
2022-12-01T21:31:14.217Z,62.38
2022-12-01T21:33:41.450Z,53.63
2022-12-01T21:36:22.316Z,54.88
2022-12-01T21:38:50.817Z,59.15
2022-12-01T21:41:23.104Z,64.38
2022-12-01T21:43:57.017Z,60.35
2022-12-01T21:46:23.979Z,54.92
2022-12-01T21:48:51.494Z,60.05
2022-12-01T21:51:25.476Z,63.40
2022-12-01T21:53:53.063Z,58.78
2022-12-01T21:56:21.505Z,58.08
2022-12-01T21:58:48.690Z,58.08
2022-12-01T22:01:35.898Z,54.22
2022-12-01T22:04:11.227Z,56.78
2022-12-01T22:06:39.369Z,57.63
2022-12-01T22:09:22.043Z,56.88
2022-12-01T22:14:38.371Z,52.80
2022-12-01T22:17:08.992Z,55.60
2022-12-01T22:19:38.452Z,54.70
2022-12-01T22:22:11.364Z,52.10
2022-12-01T22:24:46.782Z,50.58
2022-12-01T22:27:35.640Z,63.70
2022-12-01T22:30:07.714Z,58.22
2022-12-01T22:32:39.655Z,60.97
2022-12-01T22:35:18.750Z,54.85
2022-12-01T22:37:47.779Z,55.58
2022-12-01T22:40:35.000Z,54.22
2022-12-01T22:43:14.127Z,52.42
2022-12-01T22:45:41.200Z,55.72
2022-12-01T22:48:32.108Z,49.63
2022-12-01T22:51:13.777Z,58.25
2022-12-01T22:53:41.310Z,53.83
2022-12-01T22:56:20.876Z,56.90
2022-12-01T22:58:48.002Z,60.75
2022-12-01T23:01:27.384Z,55.80
2022-12-01T23:04:25.050Z,59.95
2022-12-01T23:06:58.609Z,55.60
2022-12-01T23:09:34.578Z,58.92
2022-12-01T23:12:10.302Z,57.50
2022-12-01T23:14:50.874Z,57.70
2022-12-01T23:17:24.696Z,57.45
2022-12-01T23:19:52.711Z,55.30
2022-12-01T23:22:19.723Z,59.25
2022-12-01T23:24:46.759Z,54.97
2022-12-01T23:27:14.174Z,54.33
2022-12-01T23:29:41.050Z,54.70
2022-12-01T23:32:07.895Z,47.83
2022-12-01T23:34:35.183Z,49.08
2022-12-01T23:37:02.177Z,51.60
2022-12-01T23:39:33.074Z,46.92
2022-12-01T23:42:00.419Z,48.45
2022-12-01T23:44:49.513Z,47.25
2022-12-01T23:47:24.894Z,43.85
2022-12-01T23:49:59.071Z,53.72
2022-12-01T23:52:30.536Z,46.30
2022-12-01T23:54:57.449Z,48.58
2022-12-01T23:57:24.790Z,50.15
2022-12-01T23:59:55.050Z,51.42
